sensor_id;sensor_type;location;lat;lon;timestamp;pressure;altitude;pressure_sealevel;temperature;humidity
59391;BME280;53405;57.012;40.984;2023-01-26T00:00:44;100434.19;;;-1.63;87.17
59391;BME280;53405;57.012;40.984;2023-01-26T00:03:32;100427.59;;;-1.52;87.39
59391;BME280;53405;57.012;40.984;2023-01-26T00:06:20;100429.44;;;-1.54;87.09
59391;BME280;53405;57.012;40.984;2023-01-26T00:09:12;100432.69;;;-1.36;86.87
59391;BME280;53405;57.012;40.984;2023-01-26T00:12:00;100440.63;;;-1.39;86.87
59391;BME280;53405;57.012;40.984;2023-01-26T00:14:48;100422.53;;;-1.54;86.78
59391;BME280;53405;57.012;40.984;2023-01-26T00:17:36;100415.13;;;-1.46;86.64
59391;BME280;53405;57.012;40.984;2023-01-26T00:20:25;100405.00;;;-1.49;86.76
59391;BME280;53405;57.012;40.984;2023-01-26T00:23:12;100421.81;;;-1.27;86.33
59391;BME280;53405;57.012;40.984;2023-01-26T00:26:00;100432.16;;;-1.27;86.07
59391;BME280;53405;57.012;40.984;2023-01-26T00:28:48;100420.31;;;-1.17;85.22
59391;BME280;53405;57.012;40.984;2023-01-26T00:31:37;100402.41;;;-1.34;85.33
59391;BME280;53405;57.012;40.984;2023-01-26T00:34:25;100431.88;;;-1.37;85.76
59391;BME280;53405;57.012;40.984;2023-01-26T00:37:13;100424.09;;;-1.51;86.14
59391;BME280;53405;57.012;40.984;2023-01-26T00:40:00;100427.13;;;-1.59;86.97
59391;BME280;53405;57.012;40.984;2023-01-26T00:42:49;100425.75;;;-1.50;86.66
59391;BME280;53405;57.012;40.984;2023-01-26T00:45:37;100431.38;;;-1.43;86.55
59391;BME280;53405;57.012;40.984;2023-01-26T00:48:24;100415.25;;;-1.33;86.86
59391;BME280;53405;57.012;40.984;2023-01-26T00:51:12;100416.38;;;-1.37;86.81
59391;BME280;53405;57.012;40.984;2023-01-26T00:54:00;100391.63;;;-1.41;87.59
59391;BME280;53405;57.012;40.984;2023-01-26T00:56:47;100405.09;;;-1.36;87.92
59391;BME280;53405;57.012;40.984;2023-01-26T00:59:34;100411.66;;;-1.30;88.01
59391;BME280;53405;57.012;40.984;2023-01-26T01:02:22;100402.69;;;-1.39;88.56
59391;BME280;53405;57.012;40.984;2023-01-26T01:05:10;100370.41;;;-1.46;88.69
59391;BME280;53405;57.012;40.984;2023-01-26T01:07:59;100372.53;;;-1.53;88.75
59391;BME280;53405;57.012;40.984;2023-01-26T01:10:46;100382.78;;;-1.22;88.26
59391;BME280;53405;57.012;40.984;2023-01-26T01:13:34;100377.59;;;-1.37;88.25
59391;BME280;53405;57.012;40.984;2023-01-26T01:16:22;100364.41;;;-1.32;87.42
59391;BME280;53405;57.012;40.984;2023-01-26T01:19:14;100365.78;;;-1.41;87.42
59391;BME280;53405;57.012;40.984;2023-01-26T01:22:02;100362.19;;;-1.53;88.16
59391;BME280;53405;57.012;40.984;2023-01-26T01:24:49;100356.34;;;-1.56;88.06
59391;BME280;53405;57.012;40.984;2023-01-26T01:27:37;100358.03;;;-1.55;88.36
59391;BME280;53405;57.012;40.984;2023-01-26T01:30:25;100363.56;;;-1.61;88.46
59391;BME280;53405;57.012;40.984;2023-01-26T01:33:12;100369.94;;;-1.53;88.35
59391;BME280;53405;57.012;40.984;2023-01-26T01:36:03;100362.19;;;-1.53;88.06
59391;BME280;53405;57.012;40.984;2023-01-26T01:38:51;100356.19;;;-1.53;88.26
59391;BME280;53405;57.012;40.984;2023-01-26T01:41:39;100362.75;;;-1.48;88.22
59391;BME280;53405;57.012;40.984;2023-01-26T01:44:27;100355.72;;;-1.46;87.62
59391;BME280;53405;57.012;40.984;2023-01-26T01:47:23;100360.78;;;-1.44;86.80
59391;BME280;53405;57.012;40.984;2023-01-26T01:50:15;100351.47;;;-1.18;86.93
59391;BME280;53405;57.012;40.984;2023-01-26T01:53:04;100351.31;;;-1.29;86.14
59391;BME280;53405;57.012;40.984;2023-01-26T01:56:00;100341.72;;;-1.41;86.19
59391;BME280;53405;57.012;40.984;2023-01-26T01:58:53;100351.41;;;-1.45;86.35
59391;BME280;53405;57.012;40.984;2023-01-26T02:01:42;100346.97;;;-1.43;87.16
59391;BME280;53405;57.012;40.984;2023-01-26T02:04:29;100347.25;;;-1.33;86.19
59391;BME280;53405;57.012;40.984;2023-01-26T02:07:22;100353.69;;;-1.40;86.32
59391;BME280;53405;57.012;40.984;2023-01-26T02:10:10;100346.97;;;-1.29;85.76
59391;BME280;53405;57.012;40.984;2023-01-26T02:13:05;100354.81;;;-1.30;85.85
59391;BME280;53405;57.012;40.984;2023-01-26T02:15:53;100341.16;;;-1.47;85.63
59391;BME280;53405;57.012;40.984;2023-01-26T02:18:42;100349.56;;;-1.43;85.94
59391;BME280;53405;57.012;40.984;2023-01-26T02:21:32;100343.66;;;-1.45;86.25
59391;BME280;53405;57.012;40.984;2023-01-26T02:24:25;100335.13;;;-1.47;86.80
59391;BME280;53405;57.012;40.984;2023-01-26T02:27:14;100330.44;;;-1.55;86.35
59391;BME280;53405;57.012;40.984;2023-01-26T02:30:02;100341.53;;;-1.53;86.36
59391;BME280;53405;57.012;40.984;2023-01-26T02:32:51;100311.16;;;-1.49;86.30
59391;BME280;53405;57.012;40.984;2023-01-26T02:35:39;100307.19;;;-1.40;86.70
59391;BME280;53405;57.012;40.984;2023-01-26T02:38:32;100302.59;;;-1.50;85.91
59391;BME280;53405;57.012;40.984;2023-01-26T02:41:25;100296.41;;;-1.61;86.74
59391;BME280;53405;57.012;40.984;2023-01-26T02:44:33;100298.22;;;-1.35;86.11
59391;BME280;53405;57.012;40.984;2023-01-26T02:47:20;100298.78;;;-1.44;85.99
59391;BME280;53405;57.012;40.984;2023-01-26T02:50:09;100320.28;;;-1.43;85.44
59391;BME280;53405;57.012;40.984;2023-01-26T02:52:57;100302.03;;;-1.55;86.64
59391;BME280;53405;57.012;40.984;2023-01-26T02:55:46;100327.69;;;-1.23;86.62
59391;BME280;53405;57.012;40.984;2023-01-26T02:58:33;100334.13;;;-1.16;84.98
59391;BME280;53405;57.012;40.984;2023-01-26T03:01:21;100320.47;;;-1.32;85.60
59391;BME280;53405;57.012;40.984;2023-01-26T03:04:08;100323.13;;;-1.05;84.89
59391;BME280;53405;57.012;40.984;2023-01-26T03:06:57;100324.69;;;-1.17;85.06
59391;BME280;53405;57.012;40.984;2023-01-26T03:09:44;100315.13;;;-1.29;84.99
59391;BME280;53405;57.012;40.984;2023-01-26T03:12:32;100318.53;;;-1.43;85.75
59391;BME280;53405;57.012;40.984;2023-01-26T03:15:19;100327.75;;;-1.39;86.92
59391;BME280;53405;57.012;40.984;2023-01-26T03:18:25;100328.50;;;-1.37;85.64
59391;BME280;53405;57.012;40.984;2023-01-26T03:21:31;100325.25;;;-1.40;85.34
59391;BME280;53405;57.012;40.984;2023-01-26T03:24:37;100323.78;;;-1.30;85.93
59391;BME280;53405;57.012;40.984;2023-01-26T03:27:45;100337.09;;;-1.36;86.05
59391;BME280;53405;57.012;40.984;2023-01-26T03:30:34;100347.59;;;-1.39;86.24
59391;BME280;53405;57.012;40.984;2023-01-26T03:33:22;100337.84;;;-1.20;85.36
59391;BME280;53405;57.012;40.984;2023-01-26T03:36:11;100341.97;;;-1.32;85.94
59391;BME280;53405;57.012;40.984;2023-01-26T03:39:03;100335.72;;;-1.28;85.60
59391;BME280;53405;57.012;40.984;2023-01-26T03:41:51;100320.56;;;-1.34;85.54
59391;BME280;53405;57.012;40.984;2023-01-26T03:44:58;100335.81;;;-1.29;85.02
59391;BME280;53405;57.012;40.984;2023-01-26T03:48:09;100332.00;;;-1.38;85.30
59391;BME280;53405;57.012;40.984;2023-01-26T03:51:16;100335.50;;;-1.39;85.11
59391;BME280;53405;57.012;40.984;2023-01-26T03:54:23;100325.00;;;-1.36;85.64
59391;BME280;53405;57.012;40.984;2023-01-26T03:57:28;100325.66;;;-1.32;85.15
59391;BME280;53405;57.012;40.984;2023-01-26T04:00:17;100314.56;;;-1.49;85.23
59391;BME280;53405;57.012;40.984;2023-01-26T04:03:05;100341.97;;;-1.46;85.34
59391;BME280;53405;57.012;40.984;2023-01-26T04:06:11;100299.78;;;-1.75;85.33
59391;BME280;53405;57.012;40.984;2023-01-26T04:09:17;100333.00;;;-1.55;85.51
59391;BME280;53405;57.012;40.984;2023-01-26T04:12:05;100337.91;;;-1.36;85.47
59391;BME280;53405;57.012;40.984;2023-01-26T04:14:58;100347.78;;;-1.42;85.18
59391;BME280;53405;57.012;40.984;2023-01-26T04:18:06;100360.34;;;-1.36;85.12
59391;BME280;53405;57.012;40.984;2023-01-26T04:21:14;100346.31;;;-1.32;84.64
59391;BME280;53405;57.012;40.984;2023-01-26T04:24:22;100349.19;;;-1.22;84.23
59391;BME280;53405;57.012;40.984;2023-01-26T04:27:14;100339.28;;;-1.16;83.78
59391;BME280;53405;57.012;40.984;2023-01-26T04:30:03;100330.91;;;-1.34;83.46
59391;BME280;53405;57.012;40.984;2023-01-26T04:32:51;100351.59;;;-1.34;84.25
59391;BME280;53405;57.012;40.984;2023-01-26T04:35:40;100351.59;;;-1.34;84.40
59391;BME280;53405;57.012;40.984;2023-01-26T04:38:27;100358.13;;;-1.42;84.10
59391;BME280;53405;57.012;40.984;2023-01-26T04:41:16;100352.88;;;-1.41;84.27
59391;BME280;53405;57.012;40.984;2023-01-26T04:44:07;100343.56;;;-1.29;84.18
59391;BME280;53405;57.012;40.984;2023-01-26T04:46:55;100345.66;;;-1.36;83.71
59391;BME280;53405;57.012;40.984;2023-01-26T04:49:42;100353.78;;;-1.56;84.23
59391;BME280;53405;57.012;40.984;2023-01-26T04:52:31;100341.03;;;-1.59;84.42
59391;BME280;53405;57.012;40.984;2023-01-26T04:55:23;100350.28;;;-1.55;84.70
59391;BME280;53405;57.012;40.984;2023-01-26T04:58:11;100335.50;;;-1.68;84.93
59391;BME280;53405;57.012;40.984;2023-01-26T05:00:59;100346.38;;;-1.63;84.80
59391;BME280;53405;57.012;40.984;2023-01-26T05:07:28;100345.19;;;-1.14;82.67
59391;BME280;53405;57.012;40.984;2023-01-26T05:10:16;100343.84;;;-1.48;83.84
59391;BME280;53405;57.012;40.984;2023-01-26T05:13:22;100340.75;;;-1.55;83.96
59391;BME280;53405;57.012;40.984;2023-01-26T05:16:42;100345.38;;;-1.46;84.85
59391;BME280;53405;57.012;40.984;2023-01-26T05:19:50;100343.25;;;-1.53;84.21
59391;BME280;53405;57.012;40.984;2023-01-26T05:22:50;100347.69;;;-1.41;83.97
59391;BME280;53405;57.012;40.984;2023-01-26T05:25:58;100334.97;;;-1.44;84.28
59391;BME280;53405;57.012;40.984;2023-01-26T05:28:47;100331.16;;;-1.67;84.27
59391;BME280;53405;57.012;40.984;2023-01-26T05:31:34;100351.19;;;-1.56;85.12
59391;BME280;53405;57.012;40.984;2023-01-26T05:34:22;100341.03;;;-1.59;84.87
59391;BME280;53405;57.012;40.984;2023-01-26T05:37:10;100339.66;;;-1.65;84.84
59391;BME280;53405;57.012;40.984;2023-01-26T05:40:03;100329.97;;;-1.76;85.05
59391;BME280;53405;57.012;40.984;2023-01-26T05:42:52;100329.16;;;-1.76;85.39
59391;BME280;53405;57.012;40.984;2023-01-26T05:45:47;100331.72;;;-1.76;85.71
59391;BME280;53405;57.012;40.984;2023-01-26T05:48:36;100343.72;;;-1.61;84.96
59391;BME280;53405;57.012;40.984;2023-01-26T05:51:24;100335.59;;;-1.55;84.49
59391;BME280;53405;57.012;40.984;2023-01-26T05:54:12;100311.06;;;-1.76;84.97
59391;BME280;53405;57.012;40.984;2023-01-26T05:56:59;100342.25;;;-1.51;85.56
59391;BME280;53405;57.012;40.984;2023-01-26T05:59:48;100340.84;;;-1.71;84.87
59391;BME280;53405;57.012;40.984;2023-01-26T06:02:36;100329.53;;;-1.54;85.75
59391;BME280;53405;57.012;40.984;2023-01-26T06:05:24;100326.47;;;-1.60;84.64
59391;BME280;53405;57.012;40.984;2023-01-26T06:08:13;100337.16;;;-1.81;85.17
59391;BME280;53405;57.012;40.984;2023-01-26T06:11:32;100337.69;;;-1.90;85.52
59391;BME280;53405;57.012;40.984;2023-01-26T06:14:41;100315.63;;;-1.96;86.78
59391;BME280;53405;57.012;40.984;2023-01-26T06:17:29;100339.47;;;-1.62;85.68
59391;BME280;53405;57.012;40.984;2023-01-26T06:20:20;100339.94;;;-1.55;85.59
59391;BME280;53405;57.012;40.984;2023-01-26T06:23:18;100328.69;;;-1.69;85.53
59391;BME280;53405;57.012;40.984;2023-01-26T06:26:07;100323.03;;;-1.75;85.89
59391;BME280;53405;57.012;40.984;2023-01-26T06:28:57;100336.09;;;-1.93;86.17
59391;BME280;53405;57.012;40.984;2023-01-26T06:31:48;100320.53;;;-1.91;86.69
59391;BME280;53405;57.012;40.984;2023-01-26T06:34:37;100322.22;;;-1.76;86.84
59391;BME280;53405;57.012;40.984;2023-01-26T06:37:25;100323.50;;;-1.83;85.90
59391;BME280;53405;57.012;40.984;2023-01-26T06:40:13;100321.31;;;-1.46;85.54
59391;BME280;53405;57.012;40.984;2023-01-26T06:43:00;100317.16;;;-1.63;85.57
59391;BME280;53405;57.012;40.984;2023-01-26T06:45:48;100326.84;;;-1.52;85.83
59391;BME280;53405;57.012;40.984;2023-01-26T06:48:38;100326.47;;;-1.60;85.97
59391;BME280;53405;57.012;40.984;2023-01-26T06:51:54;100327.47;;;-1.63;86.27
59391;BME280;53405;57.012;40.984;2023-01-26T06:54:57;100325.88;;;-1.80;86.32
59391;BME280;53405;57.012;40.984;2023-01-26T06:58:08;100326.50;;;-1.91;86.80
59391;BME280;53405;57.012;40.984;2023-01-26T07:01:22;100329.84;;;-1.89;86.65
59391;BME280;53405;57.012;40.984;2023-01-26T07:04:11;100316.78;;;-1.71;86.60
59391;BME280;53405;57.012;40.984;2023-01-26T07:06:59;100332.00;;;-1.67;85.98
59391;BME280;53405;57.012;40.984;2023-01-26T07:09:46;100322.22;;;-1.76;87.14
59391;BME280;53405;57.012;40.984;2023-01-26T07:12:44;100323.97;;;-1.76;86.81
59391;BME280;53405;57.012;40.984;2023-01-26T07:15:32;100338.50;;;-1.90;87.48
59391;BME280;53405;57.012;40.984;2023-01-26T07:18:19;100341.56;;;-1.83;86.78
59391;BME280;53405;57.012;40.984;2023-01-26T07:21:11;100338.72;;;-1.78;87.20
59391;BME280;53405;57.012;40.984;2023-01-26T07:23:59;100345.38;;;-1.74;86.71
59391;BME280;53405;57.012;40.984;2023-01-26T07:26:46;100344.38;;;-1.72;86.65
59391;BME280;53405;57.012;40.984;2023-01-26T07:29:34;100349.34;;;-1.69;86.76
59391;BME280;53405;57.012;40.984;2023-01-26T07:32:21;100354.34;;;-1.51;84.67
59391;BME280;53405;57.012;40.984;2023-01-26T07:35:09;100347.88;;;-1.73;85.62
59391;BME280;53405;57.012;40.984;2023-01-26T07:37:57;100348.88;;;-1.61;85.77
59391;BME280;53405;57.012;40.984;2023-01-26T07:40:45;100336.63;;;-1.57;84.81
59391;BME280;53405;57.012;40.984;2023-01-26T07:43:34;100344.47;;;-1.30;84.33
59391;BME280;53405;57.012;40.984;2023-01-26T07:46:21;100349.00;;;-1.34;84.38
59391;BME280;53405;57.012;40.984;2023-01-26T07:49:11;100350.56;;;-1.46;84.33
59391;BME280;53405;57.012;40.984;2023-01-26T07:51:59;100339.41;;;-1.60;84.84
59391;BME280;53405;57.012;40.984;2023-01-26T07:54:47;100341.41;;;-1.66;84.82
59391;BME280;53405;57.012;40.984;2023-01-26T07:57:34;100322.75;;;-1.85;85.26
59391;BME280;53405;57.012;40.984;2023-01-26T08:00:22;100288.25;;;-1.98;85.29
59391;BME280;53405;57.012;40.984;2023-01-26T08:03:10;100342.06;;;-1.62;85.46
59391;BME280;53405;57.012;40.984;2023-01-26T08:05:57;100333.97;;;-1.56;85.30
59391;BME280;53405;57.012;40.984;2023-01-26T08:08:48;100332.66;;;-1.49;85.38
59391;BME280;53405;57.012;40.984;2023-01-26T08:11:42;100325.34;;;-1.42;84.34
59391;BME280;53405;57.012;40.984;2023-01-26T08:14:29;100339.41;;;-1.46;84.83
59391;BME280;53405;57.012;40.984;2023-01-26T08:17:32;100344.75;;;-1.49;85.16
59391;BME280;53405;57.012;40.984;2023-01-26T08:20:21;100336.22;;;-1.66;85.37
59391;BME280;53405;57.012;40.984;2023-01-26T08:23:08;100332.38;;;-1.30;84.68
59391;BME280;53405;57.012;40.984;2023-01-26T08:26:11;100326.22;;;-1.56;84.77
59391;BME280;53405;57.012;40.984;2023-01-26T08:29:25;100323.81;;;-1.59;85.16
59391;BME280;53405;57.012;40.984;2023-01-26T08:32:13;100317.06;;;-1.47;84.62
59391;BME280;53405;57.012;40.984;2023-01-26T08:35:00;100317.59;;;-1.42;84.81
59391;BME280;53405;57.012;40.984;2023-01-26T08:37:49;100318.47;;;-1.56;85.12
59391;BME280;53405;57.012;40.984;2023-01-26T08:40:37;100322.88;;;-1.58;85.30
59391;BME280;53405;57.012;40.984;2023-01-26T08:43:25;100319.19;;;-1.39;86.48
59391;BME280;53405;57.012;40.984;2023-01-26T08:46:13;100309.97;;;-1.29;86.14
59391;BME280;53405;57.012;40.984;2023-01-26T08:49:01;100322.50;;;-1.37;85.07
59391;BME280;53405;57.012;40.984;2023-01-26T08:51:49;100281.09;;;-1.65;85.93
59391;BME280;53405;57.012;40.984;2023-01-26T08:54:37;100318.63;;;-1.44;84.98
59391;BME280;53405;57.012;40.984;2023-01-26T08:57:24;100317.91;;;-1.32;86.00
59391;BME280;53405;57.012;40.984;2023-01-26T09:00:12;100295.66;;;-1.35;84.98
59391;BME280;53405;57.012;40.984;2023-01-26T09:03:01;100313.91;;;-1.23;84.89
59391;BME280;53405;57.012;40.984;2023-01-26T09:05:50;100305.00;;;-1.47;85.14
59391;BME280;53405;57.012;40.984;2023-01-26T09:08:37;100304.78;;;-1.43;85.78
59391;BME280;53405;57.012;40.984;2023-01-26T09:11:25;100309.28;;;-1.33;85.80
59391;BME280;53405;57.012;40.984;2023-01-26T09:14:13;100306.72;;;-1.47;85.47
59391;BME280;53405;57.012;40.984;2023-01-26T09:17:00;100320.09;;;-1.40;85.85
59391;BME280;53405;57.012;40.984;2023-01-26T09:19:48;100319.53;;;-1.31;85.05
59391;BME280;53405;57.012;40.984;2023-01-26T09:22:36;100318.81;;;-1.33;85.27
59391;BME280;53405;57.012;40.984;2023-01-26T09:25:24;100305.44;;;-1.40;85.17
59391;BME280;53405;57.012;40.984;2023-01-26T09:28:11;100296.28;;;-1.31;85.22
59391;BME280;53405;57.012;40.984;2023-01-26T09:31:07;100307.09;;;-1.39;85.64
59391;BME280;53405;57.012;40.984;2023-01-26T09:34:25;100303.41;;;-1.35;85.88
59391;BME280;53405;57.012;40.984;2023-01-26T09:37:13;100300.38;;;-1.41;86.14
59391;BME280;53405;57.012;40.984;2023-01-26T09:40:01;100295.75;;;-1.36;86.05
59391;BME280;53405;57.012;40.984;2023-01-26T09:49:13;100298.16;;;-1.48;86.03
59391;BME280;53405;57.012;40.984;2023-01-26T09:52:06;100277.84;;;-1.54;86.25
59391;BME280;53405;57.012;40.984;2023-01-26T09:55:02;100278.50;;;-1.50;86.58
59391;BME280;53405;57.012;40.984;2023-01-26T09:58:00;100281.44;;;-1.28;86.75
59391;BME280;53405;57.012;40.984;2023-01-26T10:00:52;100282.00;;;-1.37;86.30
59391;BME280;53405;57.012;40.984;2023-01-26T10:04:00;100284.09;;;-1.15;85.60
59391;BME280;53405;57.012;40.984;2023-01-26T10:06:52;100280.97;;;-1.20;85.60
59391;BME280;53405;57.012;40.984;2023-01-26T10:10:02;100275.03;;;-1.22;84.89
59391;BME280;53405;57.012;40.984;2023-01-26T10:12:52;100278.34;;;-1.05;85.62
59391;BME280;53405;57.012;40.984;2023-01-26T10:15:55;100270.41;;;-1.17;85.31
59391;BME280;53405;57.012;40.984;2023-01-26T10:19:04;100276.06;;;-1.10;85.68
59391;BME280;53405;57.012;40.984;2023-01-26T10:22:01;100279.47;;;-1.10;85.18
59391;BME280;53405;57.012;40.984;2023-01-26T10:24:52;100279.66;;;-1.13;84.97
59391;BME280;53405;57.012;40.984;2023-01-26T10:27:42;100264.72;;;-1.36;85.46
59391;BME280;53405;57.012;40.984;2023-01-26T10:30:32;100279.94;;;-1.17;85.41
59391;BME280;53405;57.012;40.984;2023-01-26T10:33:24;100285.81;;;-1.15;84.88
59391;BME280;53405;57.012;40.984;2023-01-26T10:36:12;100280.97;;;-1.20;85.21
59391;BME280;53405;57.012;40.984;2023-01-26T10:39:08;100270.88;;;-1.10;85.63
59391;BME280;53405;57.012;40.984;2023-01-26T10:41:58;100275.06;;;-0.95;86.37
59391;BME280;53405;57.012;40.984;2023-01-26T10:44:49;100270.13;;;-0.98;84.93
59391;BME280;53405;57.012;40.984;2023-01-26T10:47:36;100274.66;;;-0.74;84.93
59391;BME280;53405;57.012;40.984;2023-01-26T10:50:27;100264.50;;;-1.19;84.36
59391;BME280;53405;57.012;40.984;2023-01-26T10:53:21;100280.69;;;-1.30;85.20
59391;BME280;53405;57.012;40.984;2023-01-26T10:56:13;100254.69;;;-1.41;85.76
59391;BME280;53405;57.012;40.984;2023-01-26T10:59:06;100263.06;;;-1.23;85.81
59391;BME280;53405;57.012;40.984;2023-01-26T11:07:55;100271.75;;;-1.38;85.60
59391;BME280;53405;57.012;40.984;2023-01-26T11:10:52;100283.34;;;-1.17;85.56
59391;BME280;53405;57.012;40.984;2023-01-26T11:13:43;100288.06;;;-1.23;85.46
59391;BME280;53405;57.012;40.984;2023-01-26T11:16:31;100283.94;;;-1.26;85.61
59391;BME280;53405;57.012;40.984;2023-01-26T11:19:48;100284.56;;;-1.22;85.49
59391;BME280;53405;57.012;40.984;2023-01-26T11:26:19;100271.66;;;-1.37;86.23
59391;BME280;53405;57.012;40.984;2023-01-26T11:36:45;100261.72;;;-1.43;86.62
59391;BME280;53405;57.012;40.984;2023-01-26T11:39:14;100274.81;;;-1.04;85.21
59391;BME280;53405;57.012;40.984;2023-01-26T11:43:14;100295.06;;;-1.11;84.78
59391;BME280;53405;57.012;40.984;2023-01-26T11:51:19;100287.47;;;-1.56;86.13
59391;BME280;53405;57.012;40.984;2023-01-26T11:54:22;100289.50;;;-1.47;85.95
59391;BME280;53405;57.012;40.984;2023-01-26T12:00:21;100294.25;;;-1.40;85.75
59391;BME280;53405;57.012;40.984;2023-01-26T12:03:43;100281.06;;;-1.36;85.92
59391;BME280;53405;57.012;40.984;2023-01-26T12:06:37;100287.06;;;-1.35;86.45
59391;BME280;53405;57.012;40.984;2023-01-26T12:09:31;100294.47;;;-1.29;86.10
59391;BME280;53405;57.012;40.984;2023-01-26T12:12:42;100290.03;;;-1.41;85.83
59391;BME280;53405;57.012;40.984;2023-01-26T12:15:36;100301.66;;;-1.49;86.58
59391;BME280;53405;57.012;40.984;2023-01-26T12:18:34;100292.06;;;-1.47;86.53
59391;BME280;53405;57.012;40.984;2023-01-26T12:21:43;100294.19;;;-1.24;85.63
59391;BME280;53405;57.012;40.984;2023-01-26T12:25:25;100291.69;;;-1.26;85.68
59391;BME280;53405;57.012;40.984;2023-01-26T12:28:30;100264.59;;;-1.62;85.49
59391;BME280;53405;57.012;40.984;2023-01-26T12:31:34;100289.09;;;-1.55;86.44
59391;BME280;53405;57.012;40.984;2023-01-26T12:34:31;100285.41;;;-1.36;86.11
59391;BME280;53405;57.012;40.984;2023-01-26T12:37:54;100285.63;;;-1.12;85.32
59391;BME280;53405;57.012;40.984;2023-01-26T12:47:20;100274.34;;;-1.38;86.34
59391;BME280;53405;57.012;40.984;2023-01-26T12:53:36;100287.34;;;-1.25;86.88
59391;BME280;53405;57.012;40.984;2023-01-26T12:56:41;100284.31;;;-1.47;87.58
59391;BME280;53405;57.012;40.984;2023-01-26T12:59:33;100282.06;;;-1.24;87.97
59391;BME280;53405;57.012;40.984;2023-01-26T13:02:28;100309.97;;;-1.29;87.34
59391;BME280;53405;57.012;40.984;2023-01-26T13:05:30;100298.25;;;-1.49;88.63
59391;BME280;53405;57.012;40.984;2023-01-26T13:11:47;100303.78;;;-1.41;89.31
59391;BME280;53405;57.012;40.984;2023-01-26T13:18:01;100299.53;;;-1.28;89.53
59391;BME280;53405;57.012;40.984;2023-01-26T13:20:49;100303.03;;;-1.29;90.30
59391;BME280;53405;57.012;40.984;2023-01-26T13:23:39;100301.81;;;-1.37;89.44
59391;BME280;53405;57.012;40.984;2023-01-26T13:29:26;100297.41;;;-1.35;90.70
59391;BME280;53405;57.012;40.984;2023-01-26T13:35:08;100298.50;;;-1.39;90.73
59391;BME280;53405;57.012;40.984;2023-01-26T13:38:10;100300.81;;;-1.35;90.62
59391;BME280;53405;57.012;40.984;2023-01-26T13:41:00;100301.25;;;-1.28;90.89
59391;BME280;53405;57.012;40.984;2023-01-26T13:47:01;100305.81;;;-1.32;90.15
59391;BME280;53405;57.012;40.984;2023-01-26T13:49:52;100290.75;;;-1.25;90.88
59391;BME280;53405;57.012;40.984;2023-01-26T13:52:41;100299.53;;;-1.28;90.89
59391;BME280;53405;57.012;40.984;2023-01-26T13:55:30;100293.63;;;-1.44;90.78
59391;BME280;53405;57.012;40.984;2023-01-26T13:58:21;100286.81;;;-1.45;91.28
59391;BME280;53405;57.012;40.984;2023-01-26T14:01:12;100293.72;;;-1.46;91.58
59391;BME280;53405;57.012;40.984;2023-01-26T14:04:05;100284.09;;;-1.43;91.75
59391;BME280;53405;57.012;40.984;2023-01-26T14:06:55;100272.25;;;-1.60;92.24
59391;BME280;53405;57.012;40.984;2023-01-26T14:09:46;100281.91;;;-1.64;92.29
59391;BME280;53405;57.012;40.984;2023-01-26T14:12:41;100282.25;;;-1.27;91.92
59391;BME280;53405;57.012;40.984;2023-01-26T14:15:31;100273.00;;;-1.17;92.16
59391;BME280;53405;57.012;40.984;2023-01-26T14:18:19;100260.47;;;-1.37;91.70
59391;BME280;53405;57.012;40.984;2023-01-26T14:21:22;100280.34;;;-1.52;91.26
59391;BME280;53405;57.012;40.984;2023-01-26T14:24:09;100264.75;;;-1.51;92.15
59391;BME280;53405;57.012;40.984;2023-01-26T14:26:58;100276.38;;;-1.58;92.10
59391;BME280;53405;57.012;40.984;2023-01-26T14:29:46;100280.91;;;-1.76;92.51
59391;BME280;53405;57.012;40.984;2023-01-26T14:32:34;100275.91;;;-1.65;93.46
59391;BME280;53405;57.012;40.984;2023-01-26T14:35:23;100278.03;;;-1.71;92.87
59391;BME280;53405;57.012;40.984;2023-01-26T14:40:59;100261.16;;;-1.63;92.49
59391;BME280;53405;57.012;40.984;2023-01-26T14:43:52;100269.28;;;-1.69;92.91
59391;BME280;53405;57.012;40.984;2023-01-26T14:46:55;100262.91;;;-1.77;93.06
59391;BME280;53405;57.012;40.984;2023-01-26T14:49:54;100260.41;;;-1.65;93.53
59391;BME280;53405;57.012;40.984;2023-01-26T14:52:45;100259.50;;;-1.64;92.89
59391;BME280;53405;57.012;40.984;2023-01-26T14:55:34;100256.69;;;-1.32;92.37
59391;BME280;53405;57.012;40.984;2023-01-26T14:58:32;100273.69;;;-1.28;91.89
59391;BME280;53405;57.012;40.984;2023-01-26T15:01:22;100260.56;;;-1.24;92.12
59391;BME280;53405;57.012;40.984;2023-01-26T15:13:24;100256.91;;;-1.49;92.05
59391;BME280;53405;57.012;40.984;2023-01-26T15:16:20;100257.44;;;-1.44;92.11
59391;BME280;53405;57.012;40.984;2023-01-26T15:19:22;100261.88;;;-1.32;91.97
59391;BME280;53405;57.012;40.984;2023-01-26T15:22:19;100248.16;;;-1.47;92.19
59391;BME280;53405;57.012;40.984;2023-01-26T15:28:16;100262.00;;;-1.62;92.79
59391;BME280;53405;57.012;40.984;2023-01-26T15:31:04;100257.03;;;-1.65;93.18
59391;BME280;53405;57.012;40.984;2023-01-26T15:33:53;100259.88;;;-1.70;93.28
59391;BME280;53405;57.012;40.984;2023-01-26T15:39:29;100252.50;;;-1.61;92.89
59391;BME280;53405;57.012;40.984;2023-01-26T15:42:22;100257.75;;;-1.63;93.57
59391;BME280;53405;57.012;40.984;2023-01-26T15:45:22;100253.31;;;-1.61;92.69
59391;BME280;53405;57.012;40.984;2023-01-26T15:48:12;100251.13;;;-1.53;93.01
59391;BME280;53405;57.012;40.984;2023-01-26T15:51:08;100241.16;;;-1.59;93.18
59391;BME280;53405;57.012;40.984;2023-01-26T15:53:57;100247.78;;;-1.55;93.72
59391;BME280;53405;57.012;40.984;2023-01-26T15:56:45;100237.88;;;-1.34;93.22
59391;BME280;53405;57.012;40.984;2023-01-26T15:59:32;100240.13;;;-1.56;92.43
59391;BME280;53405;57.012;40.984;2023-01-26T16:02:20;100245.84;;;-1.51;92.81
59391;BME280;53405;57.012;40.984;2023-01-26T16:05:13;100247.03;;;-1.42;93.56
59391;BME280;53405;57.012;40.984;2023-01-26T16:08:02;100237.00;;;-1.61;92.68
59391;BME280;53405;57.012;40.984;2023-01-26T16:10:54;100238.00;;;-1.64;93.59